Time;durP1;ratioP1;P1;durP2;ratioP2;P2;SDS_P1;SDS_P2;PMS_P1;PMS_P2;Temp;Humidity;BMP_temperature;BMP_pressure;BME280_temperature;BME280_humidity;BME280_pressure;Samples;Min_cycle;Max_cycle;Signal;HPM_P1;HPM_P2
2022/08/07 00:01:04;;;;;;;;;2.00;2.00;;;;;13.02;55.99;100892.34;5118465;28;8855;-61
2022/08/07 00:03:52;;;;;;;;;1.00;1.00;;;;;12.96;55.64;100886.56;5117910;28;8863;-61
2022/08/07 00:06:21;;;;;;;;;3.25;3.00;;;;;12.87;56.47;100884.56;5118308;28;8840;-61
2022/08/07 00:08:59;;;;;;;;;3.00;3.00;;;;;12.80;56.36;100885.97;5118290;27;9582;-62
2022/08/07 00:11:43;;;;;;;;;1.50;0.50;;;;;12.71;56.58;100884.84;5119504;27;8816;-61
2022/08/07 00:14:25;;;;;;;;;2.00;2.00;;;;;12.67;56.84;100877.13;5117764;28;8804;-61
2022/08/07 00:16:57;;;;;;;;;3.75;3.00;;;;;12.63;56.77;100876.53;5118048;28;8816;-62
2022/08/07 00:19:27;;;;;;;;;3.00;3.00;;;;;12.64;56.87;100882.72;5127515;27;9426;-62
2022/08/07 00:22:15;;;;;;;;;2.50;2.00;;;;;12.60;56.76;100878.59;5138182;27;8850;-63
2022/08/07 00:25:02;;;;;;;;;4.00;4.00;;;;;12.61;56.41;100880.28;5136999;27;9509;-62
2022/08/07 00:27:31;;;;;;;;;4.00;4.00;;;;;12.61;56.80;100875.78;5138745;27;8897;-62
2022/08/07 00:30:18;;;;;;;;;5.00;3.75;;;;;12.62;56.33;100863.28;5118506;27;8821;-62
2022/08/07 00:32:55;;;;;;;;;6.00;4.50;;;;;12.65;56.76;100866.59;5118051;28;8962;-61
2022/08/07 00:35:22;;;;;;;;;2.00;2.00;;;;;12.62;57.00;100866.78;5111168;28;8840;-61
2022/08/07 00:37:50;;;;;;;;;4.00;4.00;;;;;12.56;57.15;100869.06;5116900;28;8942;-62
2022/08/07 00:40:18;;;;;;;;;4.50;4.50;;;;;12.51;57.16;100873.88;5118170;28;8863;-64
2022/08/07 00:43:05;;;;;;;;;2.00;2.00;;;;;12.45;57.25;100867.19;5117043;28;8933;-61
2022/08/07 00:45:36;;;;;;;;;4.00;4.00;;;;;12.38;57.29;100863.25;5117614;28;8836;-61
2022/08/07 00:48:05;;;;;;;;;3.25;3.00;;;;;12.31;57.04;100869.16;5116891;28;9481;-62
2022/08/07 00:50:37;;;;;;;;;3.00;3.00;;;;;12.24;57.95;100866.03;5115076;28;8836;-62
2022/08/07 00:53:17;;;;;;;;;5.50;4.50;;;;;12.20;57.44;100863.72;5116933;28;8850;-61
2022/08/07 00:55:47;;;;;;;;;3.00;3.00;;;;;12.15;57.64;100858.69;5117601;28;8827;-61
2022/08/07 00:58:30;;;;;;;;;5.50;5.50;;;;;12.11;57.55;100854.56;5113844;28;8830;-61
2022/08/07 01:00:57;;;;;;;;;4.00;4.00;;;;;12.09;57.96;100866.31;5096820;28;8810;-61
2022/08/07 01:03:25;;;;;;;;;3.00;3.00;;;;;12.05;58.23;100856.78;5096580;28;8911;-62
2022/08/07 01:06:13;;;;;;;;;5.00;5.00;;;;;12.01;58.16;100863.31;5113293;28;8839;-62
2022/08/07 01:08:42;;;;;;;;;3.00;3.00;;;;;12.01;57.83;100860.66;5116334;28;8805;-61
2022/08/07 01:11:20;;;;;;;;;0.25;0.25;;;;;11.98;58.05;100858.19;5116681;28;8852;-62
2022/08/07 01:14:08;;;;;;;;;4.50;3.50;;;;;11.97;57.94;100852.97;5116304;28;8840;-62
2022/08/07 01:16:36;;;;;;;;;4.00;4.00;;;;;11.94;58.36;100851.38;5115085;28;8816;-61
2022/08/07 01:19:04;;;;;;;;;4.50;4.50;;;;;11.92;58.45;100855.97;5109575;28;8948;-62
2022/08/07 01:21:45;;;;;;;;;5.00;4.00;;;;;11.89;57.99;100856.16;5097787;28;8832;-62
2022/08/07 01:24:13;;;;;;;;;2.50;1.00;;;;;11.88;58.23;100851.81;5096271;28;8813;-62
2022/08/07 01:26:47;;;;;;;;;1.50;1.50;;;;;11.87;58.11;100858.09;5096396;28;8822;-62
2022/08/07 01:29:18;;;;;;;;;3.75;3.00;;;;;11.85;58.53;100854.69;5106444;28;8967;-61
2022/08/07 01:31:48;;;;;;;;;4.00;4.00;;;;;11.83;58.68;100853.94;5116684;28;8824;-62
2022/08/07 01:34:16;;;;;;;;;5.00;5.00;;;;;11.76;58.34;100841.97;5105501;28;8977;-61
2022/08/07 01:36:45;;;;;;;;;5.50;4.50;;;;;11.70;58.31;100845.09;5105828;28;8815;-62
2022/08/07 01:39:24;;;;;;;;;3.00;3.00;;;;;11.66;59.06;100845.38;5116597;28;8824;-61
2022/08/07 01:42:06;;;;;;;;;6.50;6.00;;;;;11.62;58.82;100843.91;5116352;28;8838;-61
2022/08/07 01:44:54;;;;;;;;;2.50;2.50;;;;;11.56;58.49;100839.81;5114726;28;8824;-61
2022/08/07 01:47:22;;;;;;;;;0.00;0.00;;;;;11.52;58.98;100846.31;5116742;28;8820;-62
2022/08/07 01:50:10;;;;;;;;;1.50;1.50;;;;;11.45;59.27;100847.69;5114854;28;9564;-61
2022/08/07 01:52:38;;;;;;;;;3.00;3.00;;;;;11.43;58.72;100844.28;5096052;28;8826;-61
2022/08/07 01:55:17;;;;;;;;;3.00;3.00;;;;;11.41;59.18;100840.00;5095928;28;8940;-65
2022/08/07 01:57:50;;;;;;;;;3.00;3.00;;;;;11.37;59.06;100850.03;5096068;28;8810;-61
2022/08/07 02:00:33;;;;;;;;;3.00;3.00;;;;;11.35;59.25;100851.97;5096106;28;8826;-62
2022/08/07 02:03:12;;;;;;;;;3.50;3.00;;;;;11.34;59.29;100850.25;5095166;28;8893;-65
2022/08/07 02:05:58;;;;;;;;;6.00;5.00;;;;;11.33;59.13;100845.88;5096107;28;8864;-62
2022/08/07 02:08:27;;;;;;;;;1.50;1.50;;;;;11.30;59.10;100854.06;5096569;28;9576;-61
2022/08/07 02:10:57;;;;;;;;;3.00;3.00;;;;;11.27;59.56;100843.63;5095770;28;9517;-63
2022/08/07 02:13:25;;;;;;;;;0.25;0.25;;;;;11.26;59.23;100843.72;5096380;28;8947;-62
2022/08/07 02:16:12;;;;;;;;;3.00;3.00;;;;;11.24;59.00;100848.31;5095947;28;8830;-62
2022/08/07 02:18:42;;;;;;;;;3.75;3.75;;;;;11.25;59.67;100842.91;5097762;28;8818;-61
2022/08/07 02:21:13;;;;;;;;;1.00;1.00;;;;;11.24;59.81;100843.81;5115547;28;8816;-61
2022/08/07 02:23:42;;;;;;;;;3.00;3.00;;;;;11.23;59.78;100842.13;5115421;28;8838;-61
2022/08/07 02:26:11;;;;;;;;;3.00;3.00;;;;;11.22;59.08;100840.41;5098678;28;8887;-62
2022/08/07 02:28:58;;;;;;;;;1.50;1.50;;;;;11.23;59.56;100836.78;5095341;28;8848;-61
2022/08/07 02:31:26;;;;;;;;;3.25;2.50;;;;;11.22;59.73;100829.75;5095905;28;8826;-61
2022/08/07 02:33:55;;;;;;;;;1.00;1.00;;;;;11.21;59.52;100837.88;5108850;27;8858;-61
2022/08/07 02:36:30;;;;;;;;;3.00;3.00;;;;;11.18;59.72;100841.59;5134888;27;8964;-61
2022/08/07 02:38:59;;;;;;;;;1.00;1.00;;;;;11.14;59.78;100832.09;5136335;27;9475;-62
2022/08/07 02:41:27;;;;;;;;;4.00;3.00;;;;;11.11;59.76;100828.78;5134823;27;9487;-62
2022/08/07 02:44:03;;;;;;;;;1.00;1.00;;;;;11.08;59.97;100832.50;5136415;27;8842;-65
2022/08/07 02:46:31;;;;;;;;;3.25;3.25;;;;;11.08;59.63;100829.00;5136575;27;8826;-61
2022/08/07 02:48:59;;;;;;;;;2.50;2.50;;;;;11.07;59.75;100830.78;5136123;27;8906;-61
2022/08/07 02:51:31;;;;;;;;;4.00;3.75;;;;;11.06;60.20;100826.41;5136788;27;8856;-62
2022/08/07 02:54:16;;;;;;;;;3.00;3.00;;;;;11.06;59.60;100826.41;5132029;27;8810;-62
2022/08/07 02:56:44;;;;;;;;;3.25;3.25;;;;;11.04;59.72;100825.69;5115597;28;8949;-61
2022/08/07 02:59:13;;;;;;;;;3.50;3.00;;;;;11.05;59.69;100826.50;5115600;28;9474;-62
2022/08/07 03:01:41;;;;;;;;;2.50;2.50;;;;;11.02;59.72;100827.59;5115949;28;8808;-62
2022/08/07 03:04:13;;;;;;;;;3.00;3.00;;;;;10.98;60.21;100820.75;5122626;27;8967;-61
2022/08/07 03:06:41;;;;;;;;;3.00;1.00;;;;;10.95;60.02;100831.63;5115602;28;8820;-61
2022/08/07 03:09:12;;;;;;;;;1.00;1.00;;;;;10.93;59.58;100825.53;5115514;28;9585;-61
2022/08/07 03:11:41;;;;;;;;;1.00;1.00;;;;;10.90;60.15;100825.75;5115885;28;8847;-61
2022/08/07 03:14:23;;;;;;;;;3.50;3.00;;;;;10.86;60.04;100826.88;5119396;27;8820;-62
2022/08/07 03:16:52;;;;;;;;;2.50;0.75;;;;;10.84;60.40;100835.97;5119528;28;9473;-62
2022/08/07 03:19:20;;;;;;;;;3.00;3.00;;;;;10.82;60.34;100835.19;5124760;27;8830;-62
2022/08/07 03:21:48;;;;;;;;;3.00;1.00;;;;;10.79;60.43;100835.41;5140010;27;8833;-61
2022/08/07 03:24:17;;;;;;;;;1.00;1.00;;;;;10.78;60.45;100828.38;5139261;27;8802;-61
2022/08/07 03:26:54;;;;;;;;;1.50;1.50;;;;;10.75;60.29;100833.88;5139771;27;9781;-62
2022/08/07 03:29:26;;;;;;;;;3.25;3.25;;;;;10.71;60.65;100832.41;5128885;27;8820;-61
2022/08/07 03:31:54;;;;;;;;;3.00;3.00;;;;;10.69;60.66;100835.16;5119334;28;8901;-61
2022/08/07 03:34:22;;;;;;;;;1.00;1.00;;;;;10.68;60.64;100835.25;5129258;27;8874;-61
2022/08/07 03:36:53;;;;;;;;;0.25;0.00;;;;;10.65;60.63;100828.34;5137719;27;8894;-61
2022/08/07 03:39:24;;;;;;;;;1.00;1.00;;;;;10.62;60.27;100823.19;5139556;27;8822;-61
2022/08/07 03:42:11;;;;;;;;;3.00;3.00;;;;;10.60;61.19;100822.44;5138536;27;8883;-61
2022/08/07 03:44:39;;;;;;;;;1.50;1.50;;;;;10.58;60.32;100823.50;5138107;27;8969;-61
2022/08/07 03:47:07;;;;;;;;;3.25;3.00;;;;;10.53;61.09;100818.47;5139643;27;8829;-62
2022/08/07 03:49:41;;;;;;;;;0.00;0.00;;;;;10.50;60.91;100824.00;5139148;27;8822;-61
2022/08/07 03:52:18;;;;;;;;;1.00;1.00;;;;;10.44;60.89;100827.06;5138803;27;8850;-61
2022/08/07 03:54:53;;;;;;;;;3.00;3.00;;;;;10.42;61.14;100828.97;5138869;27;8894;-64
2022/08/07 03:57:32;;;;;;;;;2.00;1.00;;;;;10.40;60.88;100822.88;5138965;27;8825;-61
2022/08/07 04:00:20;;;;;;;;;1.75;1.50;;;;;10.39;60.92;100823.00;5136818;27;8848;-62
2022/08/07 04:03:00;;;;;;;;;1.00;1.00;;;;;10.38;61.54;100816.81;5118405;28;9562;-62
2022/08/07 04:05:31;;;;;;;;;3.00;3.00;;;;;10.39;60.85;100820.34;5118439;27;8820;-61
2022/08/07 04:08:08;;;;;;;;;2.00;2.00;;;;;10.40;60.76;100822.88;5118504;28;8910;-61
2022/08/07 04:10:37;;;;;;;;;3.00;3.00;;;;;10.42;61.07;100825.44;5119516;27;9570;-61
2022/08/07 04:13:08;;;;;;;;;4.00;3.25;;;;;10.43;60.59;100816.50;5118461;28;8940;-63
2022/08/07 04:15:42;;;;;;;;;4.00;3.00;;;;;10.44;60.93;100807.56;5118349;28;8955;-61
2022/08/07 04:18:12;;;;;;;;;1.00;0.75;;;;;10.42;60.93;100812.13;5121835;27;8828;-61
2022/08/07 04:21:00;;;;;;;;;1.00;1.00;;;;;10.40;60.84;100812.22;5118174;28;8828;-62
2022/08/07 04:23:28;;;;;;;;;3.00;3.00;;;;;10.40;61.29;100820.22;5118051;27;8816;-61
2022/08/07 04:26:16;;;;;;;;;0.50;0.50;;;;;10.48;60.87;100819.75;5117077;28;8876;-62
2022/08/07 04:28:48;;;;;;;;;3.00;3.00;;;;;10.47;60.55;100816.19;5118025;27;8819;-61
2022/08/07 04:31:16;;;;;;;;;3.75;1.00;;;;;10.46;61.26;100817.16;5118168;28;8832;-62
2022/08/07 04:33:46;;;;;;;;;4.00;3.00;;;;;10.43;61.24;100825.38;5123782;27;8853;-61
2022/08/07 04:36:22;;;;;;;;;1.00;1.00;;;;;10.42;61.14;100821.00;5136886;27;8820;-61
2022/08/07 04:38:52;;;;;;;;;1.00;1.00;;;;;10.42;61.32;100821.00;5138095;27;8822;-61
2022/08/07 04:41:20;;;;;;;;;3.00;3.00;;;;;10.45;61.56;100823.44;5138526;27;8849;-61
2022/08/07 04:43:49;;;;;;;;;3.00;3.00;;;;;10.50;60.93;100821.34;5138039;27;8810;-62
2022/08/07 04:46:37;;;;;;;;;1.00;1.00;;;;;10.60;60.42;100826.91;5137855;27;8976;-61
2022/08/07 04:49:24;;;;;;;;;2.00;2.00;;;;;10.68;60.84;100822.78;5126398;27;8890;-61
2022/08/07 04:51:52;;;;;;;;;3.00;3.00;;;;;10.75;60.59;100828.56;5117174;28;9837;-62
2022/08/07 04:54:20;;;;;;;;;3.00;3.00;;;;;10.82;60.34;100825.41;5117358;28;8830;-61
2022/08/07 04:56:56;;;;;;;;;3.00;3.00;;;;;10.94;60.20;100819.25;5117027;28;8875;-61
2022/08/07 04:59:44;;;;;;;;;1.00;1.00;;;;;11.05;60.04;100832.72;5116939;27;8859;-60
2022/08/07 05:02:32;;;;;;;;;4.50;3.50;;;;;11.16;59.59;100824.81;5116541;27;8851;-61
2022/08/07 05:05:00;;;;;;;;;3.00;3.00;;;;;11.25;59.33;100828.69;5130095;27;8810;-61
2022/08/07 05:07:38;;;;;;;;;3.00;3.00;;;;;11.34;59.23;100823.59;5137607;27;8814;-62
2022/08/07 05:10:15;;;;;;;;;2.50;2.00;;;;;11.42;59.04;100821.25;5137023;27;8802;-62
2022/08/07 05:12:43;;;;;;;;;3.50;2.50;;;;;11.52;59.19;100814.31;5137634;27;8952;-61
2022/08/07 05:15:21;;;;;;;;;3.25;3.25;;;;;11.63;59.02;100818.94;5137208;27;8826;-62
2022/08/07 05:17:51;;;;;;;;;3.00;3.00;;;;;11.75;58.75;100813.59;5137439;27;8833;-61
2022/08/07 05:20:23;;;;;;;;;3.25;3.25;;;;;11.88;58.56;100817.09;5120852;27;8861;-61
2022/08/07 05:22:52;;;;;;;;;3.00;3.00;;;;;12.03;58.86;100819.53;5117301;28;8847;-62
2022/08/07 05:25:19;;;;;;;;;3.00;3.00;;;;;12.16;57.87;100820.34;5116800;28;9477;-62
2022/08/07 05:28:03;;;;;;;;;3.25;3.00;;;;;12.34;57.93;100827.06;5117199;28;8843;-61
2022/08/07 05:30:49;;;;;;;;;3.00;3.00;;;;;12.51;57.99;100825.78;5116650;28;8874;-61
2022/08/07 05:33:18;;;;;;;;;2.50;2.50;;;;;12.65;57.11;100833.66;5115943;27;8870;-61
2022/08/07 05:35:47;;;;;;;;;4.50;3.50;;;;;12.79;57.46;100836.16;5116090;28;8899;-62
2022/08/07 05:38:15;;;;;;;;;1.00;1.00;;;;;12.89;56.85;100832.69;5114859;28;8816;-61
2022/08/07 05:41:03;;;;;;;;;4.50;4.50;;;;;13.00;57.38;100823.91;5115705;28;8855;-62
2022/08/07 05:43:41;;;;;;;;;3.50;3.50;;;;;13.09;56.86;100828.53;5115314;28;8846;-62
2022/08/07 05:46:29;;;;;;;;;5.50;4.50;;;;;13.25;56.88;100829.06;5115761;28;8856;-62
2022/08/07 05:48:57;;;;;;;;;2.50;1.00;;;;;13.41;56.32;100830.47;5110022;28;8952;-61
2022/08/07 05:51:26;;;;;;;;;3.00;3.00;;;;;13.57;56.36;100827.44;5095192;28;9712;-61
2022/08/07 05:53:59;;;;;;;;;3.50;3.50;;;;;13.71;56.49;100828.09;5100977;28;9541;-67
2022/08/07 05:56:47;;;;;;;;;4.00;4.00;;;;;13.87;55.91;100827.72;5114347;28;8828;-62
2022/08/07 05:59:18;;;;;;;;;6.00;5.50;;;;;13.99;56.56;100834.78;5105835;28;8908;-62
2022/08/07 06:01:47;;;;;;;;;4.00;4.00;;;;;14.13;55.92;100835.38;5094783;28;8849;-61
2022/08/07 06:04:15;;;;;;;;;3.00;3.00;;;;;14.30;55.75;100837.63;5103334;28;8852;-61
2022/08/07 06:06:43;;;;;;;;;6.67;6.67;;;;;14.49;55.68;100842.34;5115189;28;8839;-61
2022/08/07 06:09:13;;;;;;;;;3.00;3.00;;;;;14.66;55.51;100823.03;5101184;28;8822;-62
2022/08/07 06:11:42;;;;;;;;;5.00;5.00;;;;;14.85;55.05;100831.25;5096651;28;8822;-61
2022/08/07 06:14:10;;;;;;;;;6.00;5.50;;;;;14.99;54.88;100826.47;5095187;28;8826;-61
2022/08/07 06:16:47;;;;;;;;;2.00;2.00;;;;;15.16;54.39;100822.38;5095642;28;8870;-61
2022/08/07 06:19:24;;;;;;;;;3.75;3.00;;;;;15.34;54.22;100831.56;5096184;28;8852;-62
2022/08/07 06:22:11;;;;;;;;;3.75;3.75;;;;;15.50;53.93;100834.63;5098973;28;8803;-61
2022/08/07 06:24:50;;;;;;;;;6.00;4.00;;;;;15.64;53.96;100829.78;5095269;28;8798;-61
2022/08/07 06:27:24;;;;;;;;;3.00;3.00;;;;;15.80;53.91;100835.53;5096028;28;8861;-63
2022/08/07 06:30:12;;;;;;;;;2.75;2.50;;;;;15.94;53.51;100826.28;5096363;28;8842;-61
2022/08/07 06:33:00;;;;;;;;;5.00;4.75;;;;;16.09;53.33;100831.13;5095447;28;8858;-62
2022/08/07 06:35:27;;;;;;;;;3.75;3.75;;;;;16.22;53.18;100828.25;5112881;28;8948;-62
2022/08/07 06:38:12;;;;;;;;;4.00;4.00;;;;;16.31;53.06;100825.56;5115830;28;8877;-62
2022/08/07 06:40:47;;;;;;;;;4.50;4.00;;;;;16.38;52.95;100822.22;5113920;28;8812;-62
2022/08/07 06:43:16;;;;;;;;;4.00;3.50;;;;;16.45;53.21;100815.31;5115948;28;8816;-62
2022/08/07 06:45:48;;;;;;;;;4.00;4.00;;;;;16.56;52.56;100819.75;5115657;28;8816;-61
2022/08/07 06:48:17;;;;;;;;;5.00;5.00;;;;;16.68;52.81;100819.47;5095548;28;8834;-61
2022/08/07 06:50:52;;;;;;;;;3.75;3.00;;;;;16.77;52.96;100807.88;5099550;28;8840;-61
2022/08/07 06:53:21;;;;;;;;;3.00;3.00;;;;;16.88;52.66;100812.25;5099316;28;8838;-62
2022/08/07 06:56:09;;;;;;;;;4.00;4.00;;;;;17.04;52.18;100816.09;5098733;28;8814;-62
2022/08/07 06:58:42;;;;;;;;;5.20;3.80;;;;;17.18;52.66;100806.75;5099149;28;8830;-62
2022/08/07 07:01:29;;;;;;;;;0.00;0.00;;;;;17.33;52.49;100806.13;5103481;28;8825;-62
2022/08/07 07:04:10;;;;;;;;;3.40;3.00;;;;;17.47;52.04;100802.22;5111986;28;8842;-62
2022/08/07 07:06:58;;;;;;;;;3.00;3.00;;;;;17.61;51.90;100802.59;5098824;28;8842;-63
2022/08/07 07:09:28;;;;;;;;;3.80;3.80;;;;;17.75;51.81;100801.28;5098948;28;8856;-63
2022/08/07 07:11:58;;;;;;;;;3.40;2.60;;;;;17.88;51.18;100816.13;5098073;28;8887;-62
2022/08/07 07:14:43;;;;;;;;;3.60;3.00;;;;;18.06;51.19;100805.44;5098102;28;8830;-63
2022/08/07 07:17:10;;;;;;;;;3.20;3.20;;;;;18.22;50.98;100800.25;5098095;28;8834;-62
2022/08/07 07:19:45;;;;;;;;;3.00;3.00;;;;;18.36;51.04;100805.19;5098748;28;8869;-63
2022/08/07 07:22:24;;;;;;;;;2.20;1.40;;;;;18.46;50.38;100801.44;5115466;28;8831;-63
2022/08/07 07:25:07;;;;;;;;;6.40;6.00;;;;;18.63;50.38;100803.28;5117175;28;8835;-63
2022/08/07 07:27:54;;;;;;;;;1.80;1.00;;;;;18.77;50.71;100797.38;5117957;28;8839;-63
2022/08/07 07:30:34;;;;;;;;;1.00;0.60;;;;;18.87;50.02;100787.34;5118010;28;8864;-62
2022/08/07 07:33:06;;;;;;;;;3.00;3.00;;;;;18.99;50.09;100794.22;5119327;28;8860;-63
2022/08/07 07:35:34;;;;;;;;;3.80;3.60;;;;;19.10;49.74;100791.28;5119512;27;9607;-63
2022/08/07 07:38:22;;;;;;;;;3.60;3.60;;;;;19.23;49.93;100783.66;5118557;28;8840;-62
2022/08/07 07:40:50;;;;;;;;;2.80;2.80;;;;;19.36;49.85;100794.88;5127472;27;8965;-63
2022/08/07 07:43:19;;;;;;;;;3.00;3.00;;;;;19.55;49.53;100796.53;5137756;27;8813;-63
2022/08/07 07:46:07;;;;;;;;;1.00;1.00;;;;;19.71;48.98;100792.09;5138245;27;8834;-62
2022/08/07 07:48:54;;;;;;;;;4.00;3.00;;;;;19.84;49.14;100789.84;5138100;27;8849;-63
2022/08/07 07:51:26;;;;;;;;;2.60;2.60;;;;;19.98;48.62;100781.13;5138010;27;9558;-62
2022/08/07 07:53:54;;;;;;;;;2.20;2.20;;;;;20.13;48.57;100778.69;5138369;27;8958;-62
2022/08/07 07:56:26;;;;;;;;;2.20;2.20;;;;;20.23;48.91;100777.53;5123522;27;8808;-63
2022/08/07 07:58:57;;;;;;;;;1.80;1.80;;;;;20.34;48.63;100774.53;5117457;28;8820;-63
2022/08/07 08:01:26;;;;;;;;;1.60;1.60;;;;;20.47;48.13;100769.50;5116544;27;8816;-63
2022/08/07 08:04:13;;;;;;;;;2.00;2.00;;;;;20.60;48.36;100772.59;5123787;27;8841;-64
2022/08/07 08:06:42;;;;;;;;;1.00;1.00;;;;;20.73;47.97;100764.84;5136988;27;8810;-63
2022/08/07 08:09:18;;;;;;;;;1.00;1.00;;;;;20.87;47.74;100757.94;5137526;27;8825;-62
2022/08/07 08:11:49;;;;;;;;;1.00;1.00;;;;;21.00;47.96;100760.00;5137170;27;8946;-63
2022/08/07 08:14:30;;;;;;;;;2.00;1.80;;;;;21.16;47.21;100761.84;5137475;27;8968;-62
2022/08/07 08:17:00;;;;;;;;;2.00;1.40;;;;;21.26;47.27;100755.22;5133848;27;8956;-62
2022/08/07 08:19:48;;;;;;;;;1.20;1.20;;;;;21.42;46.89;100759.81;5117499;27;8851;-63
2022/08/07 08:28:16;;;;;;;;;1.40;1.40;;;;;21.82;46.72;100757.03;5119387;27;8863;-62
2022/08/07 08:31:03;;;;;;;;;1.00;1.00;;;;;21.91;46.23;100761.41;5137928;27;8818;-63
2022/08/07 08:33:32;;;;;;;;;1.00;1.00;;;;;22.05;46.46;100755.25;5134385;27;8845;-63
2022/08/07 08:36:00;;;;;;;;;0.20;0.20;;;;;22.19;46.13;100754.53;5137666;27;8936;-62
2022/08/07 08:38:29;;;;;;;;;1.00;1.00;;;;;22.32;45.45;100758.38;5137513;27;8899;-62
2022/08/07 08:41:04;;;;;;;;;1.20;1.00;;;;;22.45;45.58;100750.53;5137641;27;8849;-62
2022/08/07 08:43:34;;;;;;;;;1.00;1.00;;;;;22.54;45.38;100743.19;5137908;27;9500;-63
2022/08/07 08:46:09;;;;;;;;;2.00;2.00;;;;;22.66;45.66;100736.31;5125699;27;8888;-62
2022/08/07 08:48:37;;;;;;;;;0.60;0.60;;;;;22.79;45.18;100739.28;5128870;27;8798;-62
2022/08/07 08:51:06;;;;;;;;;0.40;0.40;;;;;22.90;45.14;100742.44;5117525;27;9465;-62
2022/08/07 08:53:52;;;;;;;;;0.00;0.00;;;;;23.07;44.27;100741.25;5126588;27;8964;-62
2022/08/07 08:56:21;;;;;;;;;1.00;1.00;;;;;23.18;44.64;100738.16;5137333;27;8814;-62
2022/08/07 08:58:51;;;;;;;;;0.00;0.00;;;;;23.28;43.93;100737.91;5137196;27;8821;-62
2022/08/07 09:01:21;;;;;;;;;0.60;0.60;;;;;23.38;44.16;100733.88;5137725;27;8833;-63
2022/08/07 09:03:56;;;;;;;;;1.00;1.00;;;;;23.47;43.62;100734.66;5137787;27;8854;-63
2022/08/07 09:06:24;;;;;;;;;0.00;0.00;;;;;23.57;43.72;100735.22;5125094;27;8946;-63
2022/08/07 09:08:56;;;;;;;;;0.00;0.00;;;;;23.63;43.75;100734.47;5116955;28;8843;-62
2022/08/07 09:11:24;;;;;;;;;0.00;0.00;;;;;23.70;43.69;100730.84;5116667;28;8854;-62
2022/08/07 09:14:12;;;;;;;;;0.00;0.00;;;;;23.79;42.72;100727.00;5116693;28;8851;-62
2022/08/07 09:16:40;;;;;;;;;0.00;0.00;;;;;23.90;42.76;100723.81;5116738;28;8816;-63
2022/08/07 09:19:08;;;;;;;;;0.00;0.00;;;;;24.01;42.59;100719.78;5116312;28;8974;-62
2022/08/07 09:21:56;;;;;;;;;1.00;1.00;;;;;24.07;42.76;100716.31;5128645;27;9472;-63
2022/08/07 09:24:44;;;;;;;;;1.00;1.00;;;;;24.19;42.93;100717.53;5136640;27;8826;-62
2022/08/07 09:27:32;;;;;;;;;1.00;1.00;;;;;24.37;41.88;100726.97;5136646;27;8849;-62
2022/08/07 09:30:20;;;;;;;;;1.00;1.00;;;;;24.47;41.89;100723.91;5117681;27;8983;-63
2022/08/07 09:32:57;;;;;;;;;1.80;1.20;;;;;24.59;42.18;100703.38;5116652;28;8883;-62
2022/08/07 09:35:31;;;;;;;;;1.00;1.00;;;;;24.75;41.77;100709.41;5096915;27;8814;-64
2022/08/07 09:38:19;;;;;;;;;1.60;1.60;;;;;24.90;41.31;100712.06;5096188;28;8830;-62
2022/08/07 09:40:50;;;;;;;;;0.00;0.00;;;;;25.01;41.10;100708.78;5095583;28;8859;-65
2022/08/07 09:43:18;;;;;;;;;1.00;1.00;;;;;25.18;40.25;100711.06;5095188;28;8862;-62
2022/08/07 09:46:05;;;;;;;;;0.60;0.60;;;;;25.47;40.17;100705.44;5095469;28;8838;-63
2022/08/07 09:48:53;;;;;;;;;1.00;1.00;;;;;25.85;39.26;100704.88;5095538;28;8861;-61
2022/08/07 09:51:41;;;;;;;;;1.00;1.00;;;;;26.33;38.52;100706.59;5115320;28;9703;-62
2022/08/07 09:54:28;;;;;;;;;1.00;1.00;;;;;26.84;38.67;100688.69;5115604;28;8874;-62
2022/08/07 09:56:56;;;;;;;;;1.00;1.00;;;;;27.37;37.82;100692.28;5096198;28;8838;-62
2022/08/07 09:59:26;;;;;;;;;1.00;1.00;;;;;27.90;36.77;100686.53;5097483;28;8810;-63
2022/08/07 10:02:10;;;;;;;;;1.00;1.00;;;;;28.36;36.52;100687.22;5095559;28;8992;-63
2022/08/07 10:04:39;;;;;;;;;1.00;1.00;;;;;28.82;35.89;100692.44;5106014;28;8816;-63
2022/08/07 10:07:14;;;;;;;;;0.80;0.80;;;;;29.17;35.58;100694.53;5100057;28;8838;-62
2022/08/07 10:10:01;;;;;;;;;0.80;0.80;;;;;29.56;34.91;100685.09;5100005;28;8828;-64
2022/08/07 10:12:29;;;;;;;;;1.40;1.00;;;;;29.81;34.69;100694.16;5115738;28;8832;-63
2022/08/07 10:14:58;;;;;;;;;1.00;1.00;;;;;30.04;34.83;100681.38;5115634;28;8925;-64
2022/08/07 10:17:26;;;;;;;;;1.20;0.80;;;;;30.36;33.97;100682.94;5115977;28;8835;-63
2022/08/07 10:20:14;;;;;;;;;1.00;1.00;;;;;30.68;34.31;100673.41;5112554;28;8971;-63
2022/08/07 10:22:48;;;;;;;;;1.00;1.00;;;;;30.96;33.53;100670.84;5094748;28;8814;-63
2022/08/07 10:25:19;;;;;;;;;1.00;1.00;;;;;31.17;33.28;100673.91;5098934;28;8814;-63
2022/08/07 10:27:49;;;;;;;;;1.00;1.00;;;;;31.43;33.45;100669.84;5098890;28;8814;-64
2022/08/07 10:30:18;;;;;;;;;1.00;1.00;;;;;31.59;32.43;100671.88;5108517;28;8952;-63
2022/08/07 10:32:46;;;;;;;;;0.00;0.00;;;;;31.83;33.04;100673.56;5099319;28;8847;-63
2022/08/07 10:35:20;;;;;;;;;0.00;0.00;;;;;32.17;32.28;100669.91;5099180;28;8836;-63
2022/08/07 10:37:52;;;;;;;;;1.00;1.00;;;;;32.48;32.03;100667.53;5099483;28;8830;-63
2022/08/07 10:40:39;;;;;;;;;1.00;1.00;;;;;32.79;31.71;100653.28;5098751;28;8858;-63
2022/08/07 10:43:08;;;;;;;;;1.60;1.60;;;;;33.11;31.35;100656.28;5098591;28;9527;-62
2022/08/07 10:45:35;;;;;;;;;1.00;1.00;;;;;33.37;31.46;100662.00;5098946;28;8791;-62
2022/08/07 10:48:14;;;;;;;;;1.00;1.00;;;;;33.53;30.99;100665.84;5099008;28;8838;-63
2022/08/07 10:50:43;;;;;;;;;0.80;0.80;;;;;33.63;30.93;100650.25;5098557;28;8858;-63
2022/08/07 10:53:17;;;;;;;;;1.00;1.00;;;;;33.87;30.88;100656.41;5098740;28;8822;-63
2022/08/07 10:55:49;;;;;;;;;1.20;1.20;;;;;34.10;30.75;100651.47;5108400;28;8951;-63
2022/08/07 10:58:19;;;;;;;;;0.00;0.00;;;;;34.28;30.31;100653.94;5116459;28;8826;-63
2022/08/07 11:01:02;;;;;;;;;0.80;0.80;;;;;34.63;30.40;100634.94;5098530;28;8810;-63
2022/08/07 11:03:38;;;;;;;;;1.80;1.80;;;;;34.86;29.11;100637.41;5099128;28;9005;-62
2022/08/07 11:06:24;;;;;;;;;1.00;1.00;;;;;34.99;29.90;100625.06;5098772;28;8842;-63
2022/08/07 11:08:53;;;;;;;;;1.00;1.00;;;;;35.15;29.68;100627.69;5100143;28;8832;-63
2022/08/07 11:11:21;;;;;;;;;1.80;1.80;;;;;35.29;28.48;100619.78;5098489;28;8844;-62
2022/08/07 11:13:50;;;;;;;;;3.00;3.00;;;;;35.24;28.13;100615.03;5097738;28;8846;-63
2022/08/07 11:16:38;;;;;;;;;1.80;1.80;;;;;35.21;28.99;100620.28;5098557;28;8830;-64
2022/08/07 11:19:07;;;;;;;;;1.00;1.00;;;;;35.33;29.14;100613.44;5097973;28;8830;-63
2022/08/07 11:21:35;;;;;;;;;1.00;1.00;;;;;35.54;28.30;100615.25;5109989;28;8812;-62
2022/08/07 11:24:09;;;;;;;;;2.00;2.00;;;;;35.67;27.99;100611.16;5117889;28;8843;-63
2022/08/07 11:26:38;;;;;;;;;2.00;2.00;;;;;35.73;28.46;100605.41;5117054;28;8812;-63
2022/08/07 11:29:16;;;;;;;;;0.60;0.60;;;;;35.75;28.06;100610.66;5109522;28;8822;-62
2022/08/07 11:32:04;;;;;;;;;1.00;1.00;;;;;35.92;27.84;100608.56;5098305;28;8831;-63
2022/08/07 11:34:33;;;;;;;;;1.00;1.00;;;;;36.08;28.10;100607.50;5097569;28;9062;-63
2022/08/07 11:37:01;;;;;;;;;1.00;1.00;;;;;36.15;27.72;100610.91;5098002;28;8850;-63
2022/08/07 11:39:29;;;;;;;;;2.00;2.00;;;;;36.27;27.74;100610.34;5098171;28;8845;-62
2022/08/07 11:42:16;;;;;;;;;1.00;0.80;;;;;36.51;27.31;100599.59;5097917;28;8973;-62
2022/08/07 11:44:45;;;;;;;;;1.20;1.00;;;;;36.66;26.69;100603.25;5096755;28;8849;-62
2022/08/07 11:47:24;;;;;;;;;1.20;1.20;;;;;36.80;26.67;100593.25;5096517;28;8833;-63
2022/08/07 11:50:05;;;;;;;;;2.00;2.00;;;;;37.09;26.71;100602.72;5101595;28;8816;-62
2022/08/07 11:52:53;;;;;;;;;1.00;1.00;;;;;37.34;26.67;100599.09;5117502;28;9715;-62
2022/08/07 11:55:21;;;;;;;;;1.00;1.00;;;;;37.47;26.13;100599.31;5111404;28;8940;-63
2022/08/07 11:58:09;;;;;;;;;0.40;0.40;;;;;37.49;25.91;100602.69;5097840;28;8866;-63
2022/08/07 12:00:42;;;;;;;;;1.20;1.20;;;;;37.49;26.28;100601.84;5105083;28;8816;-62
2022/08/07 12:03:29;;;;;;;;;1.80;1.80;;;;;37.59;26.07;100611.03;5117884;28;8839;-62
2022/08/07 12:06:12;;;;;;;;;1.00;1.00;;;;;37.68;26.29;100611.25;5115266;28;9484;-62
2022/08/07 12:08:59;;;;;;;;;2.40;1.80;;;;;37.75;25.74;100595.94;5117338;28;8852;-62
2022/08/07 12:11:27;;;;;;;;;1.80;1.80;;;;;37.87;25.76;100592.84;5111931;28;8816;-63
2022/08/07 12:13:59;;;;;;;;;1.20;1.20;;;;;38.01;25.77;100589.19;5117243;28;8832;-62
2022/08/07 12:16:27;;;;;;;;;2.00;2.00;;;;;38.14;25.30;100593.31;5113598;28;8966;-63